sensor_id;sensor_type;location;lat;lon;timestamp;P1;durP1;ratioP1;P2;durP2;ratioP2
17564;SDS011;62994;52.126;5.596;2023-06-05T00:01:37;3.00;;;2.80;;
17564;SDS011;62994;52.126;5.596;2023-06-05T00:04:04;3.63;;;3.42;;
17564;SDS011;62994;52.126;5.596;2023-06-05T00:06:33;3.53;;;3.33;;
17564;SDS011;62994;52.126;5.596;2023-06-05T00:09:02;3.97;;;3.55;;
17564;SDS011;62994;52.126;5.596;2023-06-05T00:11:29;3.22;;;3.03;;
17564;SDS011;62994;52.126;5.596;2023-06-05T00:13:57;4.85;;;2.97;;
17564;SDS011;62994;52.126;5.596;2023-06-05T00:16:24;3.78;;;3.47;;
17564;SDS011;62994;52.126;5.596;2023-06-05T00:18:51;5.18;;;3.55;;
17564;SDS011;62994;52.126;5.596;2023-06-05T00:21:18;5.47;;;3.40;;
17564;SDS011;62994;52.126;5.596;2023-06-05T00:23:46;3.72;;;3.53;;
17564;SDS011;62994;52.126;5.596;2023-06-05T00:26:13;3.83;;;3.55;;
17564;SDS011;62994;52.126;5.596;2023-06-05T00:28:40;4.32;;;3.92;;
17564;SDS011;62994;52.126;5.596;2023-06-05T00:31:07;4.22;;;3.60;;
17564;SDS011;62994;52.126;5.596;2023-06-05T00:33:34;3.95;;;3.75;;
17564;SDS011;62994;52.126;5.596;2023-06-05T00:36:01;3.95;;;3.70;;
17564;SDS011;62994;52.126;5.596;2023-06-05T00:38:29;3.83;;;3.47;;
17564;SDS011;62994;52.126;5.596;2023-06-05T00:40:57;4.82;;;4.43;;
17564;SDS011;62994;52.126;5.596;2023-06-05T00:43:24;4.68;;;3.75;;
17564;SDS011;62994;52.126;5.596;2023-06-05T00:45:52;4.03;;;3.83;;
17564;SDS011;62994;52.126;5.596;2023-06-05T00:48:23;4.25;;;3.90;;
17564;SDS011;62994;52.126;5.596;2023-06-05T00:50:50;4.00;;;3.80;;
17564;SDS011;62994;52.126;5.596;2023-06-05T00:53:17;4.60;;;3.75;;
17564;SDS011;62994;52.126;5.596;2023-06-05T00:55:46;4.22;;;3.90;;
17564;SDS011;62994;52.126;5.596;2023-06-05T00:58:15;5.72;;;3.95;;
17564;SDS011;62994;52.126;5.596;2023-06-05T01:00:43;4.50;;;3.70;;
17564;SDS011;62994;52.126;5.596;2023-06-05T01:03:11;4.20;;;3.40;;
17564;SDS011;62994;52.126;5.596;2023-06-05T01:05:38;4.15;;;3.85;;
17564;SDS011;62994;52.126;5.596;2023-06-05T01:08:05;4.07;;;3.88;;
17564;SDS011;62994;52.126;5.596;2023-06-05T01:10:34;3.88;;;3.67;;
17564;SDS011;62994;52.126;5.596;2023-06-05T01:13:04;4.35;;;4.00;;
17564;SDS011;62994;52.126;5.596;2023-06-05T01:15:39;4.40;;;4.03;;
17564;SDS011;62994;52.126;5.596;2023-06-05T01:18:06;4.65;;;4.22;;
17564;SDS011;62994;52.126;5.596;2023-06-05T01:20:35;4.88;;;4.47;;
17564;SDS011;62994;52.126;5.596;2023-06-05T01:23:05;5.00;;;4.63;;
17564;SDS011;62994;52.126;5.596;2023-06-05T01:25:33;6.45;;;4.00;;
17564;SDS011;62994;52.126;5.596;2023-06-05T01:28:04;5.10;;;4.70;;
17564;SDS011;62994;52.126;5.596;2023-06-05T01:30:39;3.80;;;3.55;;
17564;SDS011;62994;52.126;5.596;2023-06-05T01:33:13;4.95;;;4.28;;
17564;SDS011;62994;52.126;5.596;2023-06-05T01:35:45;8.55;;;4.53;;
17564;SDS011;62994;52.126;5.596;2023-06-05T01:38:18;4.72;;;4.10;;
17564;SDS011;62994;52.126;5.596;2023-06-05T01:40:46;4.28;;;3.97;;
17564;SDS011;62994;52.126;5.596;2023-06-05T01:43:18;5.18;;;4.60;;
17564;SDS011;62994;52.126;5.596;2023-06-05T01:45:46;4.90;;;4.63;;
17564;SDS011;62994;52.126;5.596;2023-06-05T01:48:13;6.18;;;4.72;;
17564;SDS011;62994;52.126;5.596;2023-06-05T01:50:41;6.55;;;4.72;;
17564;SDS011;62994;52.126;5.596;2023-06-05T01:53:08;5.30;;;4.90;;
17564;SDS011;62994;52.126;5.596;2023-06-05T01:55:38;4.20;;;3.83;;
17564;SDS011;62994;52.126;5.596;2023-06-05T01:58:06;8.82;;;4.80;;
17564;SDS011;62994;52.126;5.596;2023-06-05T02:00:33;4.97;;;4.68;;
17564;SDS011;62994;52.126;5.596;2023-06-05T02:03:01;5.15;;;4.75;;
17564;SDS011;62994;52.126;5.596;2023-06-05T02:05:28;5.88;;;5.40;;
17564;SDS011;62994;52.126;5.596;2023-06-05T02:07:55;7.13;;;4.82;;
17564;SDS011;62994;52.126;5.596;2023-06-05T02:10:24;6.63;;;4.90;;
17564;SDS011;62994;52.126;5.596;2023-06-05T02:12:53;5.20;;;4.70;;
17564;SDS011;62994;52.126;5.596;2023-06-05T02:15:20;4.75;;;4.45;;
17564;SDS011;62994;52.126;5.596;2023-06-05T02:17:48;4.78;;;4.45;;
17564;SDS011;62994;52.126;5.596;2023-06-05T02:20:18;5.28;;;4.78;;
17564;SDS011;62994;52.126;5.596;2023-06-05T02:22:48;4.97;;;4.68;;
17564;SDS011;62994;52.126;5.596;2023-06-05T02:25:17;5.18;;;4.78;;
17564;SDS011;62994;52.126;5.596;2023-06-05T02:27:46;5.03;;;4.60;;
17564;SDS011;62994;52.126;5.596;2023-06-05T02:30:15;5.15;;;4.75;;
17564;SDS011;62994;52.126;5.596;2023-06-05T02:32:42;5.35;;;4.50;;
17564;SDS011;62994;52.126;5.596;2023-06-05T02:35:14;5.78;;;5.38;;
17564;SDS011;62994;52.126;5.596;2023-06-05T02:37:41;6.03;;;5.45;;
17564;SDS011;62994;52.126;5.596;2023-06-05T02:40:10;5.22;;;4.78;;
17564;SDS011;62994;52.126;5.596;2023-06-05T02:42:38;6.47;;;5.00;;
17564;SDS011;62994;52.126;5.596;2023-06-05T02:45:06;6.07;;;5.47;;
17564;SDS011;62994;52.126;5.596;2023-06-05T02:47:35;5.90;;;5.30;;
17564;SDS011;62994;52.126;5.596;2023-06-05T02:50:05;6.05;;;5.55;;
17564;SDS011;62994;52.126;5.596;2023-06-05T02:52:33;5.68;;;5.25;;
17564;SDS011;62994;52.126;5.596;2023-06-05T02:55:00;4.93;;;4.57;;
17564;SDS011;62994;52.126;5.596;2023-06-05T02:57:30;5.53;;;5.05;;
17564;SDS011;62994;52.126;5.596;2023-06-05T02:59:58;6.13;;;5.60;;
17564;SDS011;62994;52.126;5.596;2023-06-05T03:02:33;6.43;;;5.25;;
17564;SDS011;62994;52.126;5.596;2023-06-05T03:05:03;5.30;;;5.00;;
17564;SDS011;62994;52.126;5.596;2023-06-05T03:07:31;6.03;;;5.57;;
17564;SDS011;62994;52.126;5.596;2023-06-05T03:09:59;6.95;;;5.80;;
17564;SDS011;62994;52.126;5.596;2023-06-05T03:12:27;5.50;;;5.10;;
17564;SDS011;62994;52.126;5.596;2023-06-05T03:14:54;6.20;;;5.72;;
17564;SDS011;62994;52.126;5.596;2023-06-05T03:17:21;6.00;;;5.25;;
17564;SDS011;62994;52.126;5.596;2023-06-05T03:19:51;8.60;;;6.22;;
17564;SDS011;62994;52.126;5.596;2023-06-05T03:22:18;6.32;;;5.78;;
17564;SDS011;62994;52.126;5.596;2023-06-05T03:24:49;6.43;;;5.93;;
17564;SDS011;62994;52.126;5.596;2023-06-05T03:27:16;6.32;;;5.85;;
17564;SDS011;62994;52.126;5.596;2023-06-05T03:29:44;6.60;;;6.15;;
17564;SDS011;62994;52.126;5.596;2023-06-05T03:32:11;6.50;;;5.90;;
17564;SDS011;62994;52.126;5.596;2023-06-05T03:34:41;6.38;;;5.80;;
17564;SDS011;62994;52.126;5.596;2023-06-05T03:37:10;11.23;;;6.05;;
17564;SDS011;62994;52.126;5.596;2023-06-05T03:39:37;6.28;;;5.80;;
17564;SDS011;62994;52.126;5.596;2023-06-05T03:42:04;6.28;;;5.72;;
17564;SDS011;62994;52.126;5.596;2023-06-05T03:44:34;6.22;;;5.82;;
17564;SDS011;62994;52.126;5.596;2023-06-05T03:47:01;7.28;;;5.85;;
17564;SDS011;62994;52.126;5.596;2023-06-05T03:49:29;6.10;;;5.65;;
17564;SDS011;62994;52.126;5.596;2023-06-05T03:51:56;7.20;;;6.47;;
17564;SDS011;62994;52.126;5.596;2023-06-05T03:54:27;6.93;;;6.43;;
17564;SDS011;62994;52.126;5.596;2023-06-05T03:56:57;6.35;;;5.85;;
17564;SDS011;62994;52.126;5.596;2023-06-05T03:59:25;6.50;;;5.82;;
17564;SDS011;62994;52.126;5.596;2023-06-05T04:01:53;6.60;;;6.00;;
17564;SDS011;62994;52.126;5.596;2023-06-05T04:04:21;6.90;;;6.20;;
17564;SDS011;62994;52.126;5.596;2023-06-05T04:06:48;5.65;;;5.25;;
17564;SDS011;62994;52.126;5.596;2023-06-05T04:09:15;9.70;;;6.43;;
17564;SDS011;62994;52.126;5.596;2023-06-05T04:11:44;6.72;;;6.22;;
17564;SDS011;62994;52.126;5.596;2023-06-05T04:14:12;8.00;;;6.63;;
17564;SDS011;62994;52.126;5.596;2023-06-05T04:16:40;11.05;;;6.28;;
17564;SDS011;62994;52.126;5.596;2023-06-05T04:19:13;6.10;;;5.70;;
17564;SDS011;62994;52.126;5.596;2023-06-05T04:21:40;6.65;;;5.93;;
17564;SDS011;62994;52.126;5.596;2023-06-05T04:24:08;7.22;;;6.40;;
17564;SDS011;62994;52.126;5.596;2023-06-05T04:26:36;6.40;;;5.95;;
17564;SDS011;62994;52.126;5.596;2023-06-05T04:29:05;9.60;;;6.18;;
17564;SDS011;62994;52.126;5.596;2023-06-05T04:31:38;10.93;;;6.95;;
17564;SDS011;62994;52.126;5.596;2023-06-05T04:34:07;7.22;;;6.60;;
17564;SDS011;62994;52.126;5.596;2023-06-05T04:36:34;7.70;;;6.97;;
17564;SDS011;62994;52.126;5.596;2023-06-05T04:39:03;7.05;;;6.40;;
17564;SDS011;62994;52.126;5.596;2023-06-05T04:41:32;6.60;;;6.05;;
17564;SDS011;62994;52.126;5.596;2023-06-05T04:44:01;9.65;;;6.63;;
17564;SDS011;62994;52.126;5.596;2023-06-05T04:46:30;6.65;;;5.88;;
17564;SDS011;62994;52.126;5.596;2023-06-05T04:48:57;7.68;;;6.90;;
17564;SDS011;62994;52.126;5.596;2023-06-05T04:51:24;7.30;;;6.47;;
17564;SDS011;62994;52.126;5.596;2023-06-05T04:53:56;9.73;;;7.57;;
17564;SDS011;62994;52.126;5.596;2023-06-05T04:56:24;7.47;;;6.10;;
17564;SDS011;62994;52.126;5.596;2023-06-05T04:58:51;9.32;;;6.82;;
17564;SDS011;62994;52.126;5.596;2023-06-05T05:01:19;6.35;;;5.68;;
17564;SDS011;62994;52.126;5.596;2023-06-05T05:03:47;6.78;;;6.18;;
17564;SDS011;62994;52.126;5.596;2023-06-05T05:06:16;6.20;;;5.68;;
17564;SDS011;62994;52.126;5.596;2023-06-05T05:08:44;7.50;;;6.03;;
17564;SDS011;62994;52.126;5.596;2023-06-05T05:11:11;9.52;;;6.18;;
17564;SDS011;62994;52.126;5.596;2023-06-05T05:13:39;6.63;;;6.13;;
17564;SDS011;62994;52.126;5.596;2023-06-05T05:16:06;7.28;;;6.60;;
17564;SDS011;62994;52.126;5.596;2023-06-05T05:18:34;6.85;;;6.18;;
17564;SDS011;62994;52.126;5.596;2023-06-05T05:21:03;6.65;;;6.05;;
17564;SDS011;62994;52.126;5.596;2023-06-05T05:23:31;7.25;;;6.15;;
17564;SDS011;62994;52.126;5.596;2023-06-05T05:25:58;6.90;;;6.22;;
17564;SDS011;62994;52.126;5.596;2023-06-05T05:28:25;6.78;;;6.18;;
17564;SDS011;62994;52.126;5.596;2023-06-05T05:30:53;7.10;;;6.53;;
17564;SDS011;62994;52.126;5.596;2023-06-05T05:33:27;7.55;;;6.20;;
17564;SDS011;62994;52.126;5.596;2023-06-05T05:35:54;6.72;;;6.13;;
17564;SDS011;62994;52.126;5.596;2023-06-05T05:38:23;9.30;;;6.35;;
17564;SDS011;62994;52.126;5.596;2023-06-05T05:40:56;6.80;;;6.18;;
17564;SDS011;62994;52.126;5.596;2023-06-05T05:43:23;6.30;;;5.80;;
17564;SDS011;62994;52.126;5.596;2023-06-05T05:45:51;6.78;;;6.10;;
17564;SDS011;62994;52.126;5.596;2023-06-05T05:48:18;6.80;;;6.20;;
17564;SDS011;62994;52.126;5.596;2023-06-05T05:50:45;7.53;;;6.40;;
17564;SDS011;62994;52.126;5.596;2023-06-05T05:53:12;7.68;;;6.43;;
17564;SDS011;62994;52.126;5.596;2023-06-05T05:55:40;7.55;;;6.07;;
17564;SDS011;62994;52.126;5.596;2023-06-05T05:58:10;6.97;;;6.40;;
17564;SDS011;62994;52.126;5.596;2023-06-05T06:00:37;7.00;;;6.28;;
17564;SDS011;62994;52.126;5.596;2023-06-05T06:03:05;6.85;;;6.40;;
17564;SDS011;62994;52.126;5.596;2023-06-05T06:05:32;7.97;;;6.80;;
17564;SDS011;62994;52.126;5.596;2023-06-05T06:08:02;7.40;;;5.88;;
17564;SDS011;62994;52.126;5.596;2023-06-05T06:10:30;7.47;;;6.25;;
17564;SDS011;62994;52.126;5.596;2023-06-05T06:12:58;9.10;;;6.57;;
17564;SDS011;62994;52.126;5.596;2023-06-05T06:15:37;6.20;;;5.70;;
17564;SDS011;62994;52.126;5.596;2023-06-05T06:18:05;6.68;;;5.97;;
17564;SDS011;62994;52.126;5.596;2023-06-05T06:20:32;6.78;;;6.18;;
17564;SDS011;62994;52.126;5.596;2023-06-05T06:22:59;7.22;;;6.50;;
17564;SDS011;62994;52.126;5.596;2023-06-05T06:25:27;6.70;;;6.20;;
17564;SDS011;62994;52.126;5.596;2023-06-05T06:27:56;6.85;;;6.28;;
17564;SDS011;62994;52.126;5.596;2023-06-05T06:30:26;6.95;;;6.35;;
17564;SDS011;62994;52.126;5.596;2023-06-05T06:32:53;5.70;;;5.15;;
17564;SDS011;62994;52.126;5.596;2023-06-05T06:35:23;6.72;;;6.00;;
17564;SDS011;62994;52.126;5.596;2023-06-05T06:37:52;6.35;;;5.72;;
17564;SDS011;62994;52.126;5.596;2023-06-05T06:40:22;6.82;;;6.28;;
17564;SDS011;62994;52.126;5.596;2023-06-05T06:42:49;6.13;;;5.47;;
17564;SDS011;62994;52.126;5.596;2023-06-05T06:45:27;6.72;;;6.22;;
17564;SDS011;62994;52.126;5.596;2023-06-05T06:47:54;6.10;;;5.70;;
17564;SDS011;62994;52.126;5.596;2023-06-05T06:50:21;6.70;;;6.10;;
17564;SDS011;62994;52.126;5.596;2023-06-05T06:52:49;11.55;;;5.70;;
17564;SDS011;62994;52.126;5.596;2023-06-05T06:55:16;5.53;;;5.20;;
17564;SDS011;62994;52.126;5.596;2023-06-05T06:57:43;5.22;;;4.93;;
17564;SDS011;62994;52.126;5.596;2023-06-05T07:00:28;6.15;;;5.75;;
17564;SDS011;62994;52.126;5.596;2023-06-05T07:02:55;5.75;;;5.22;;
17564;SDS011;62994;52.126;5.596;2023-06-05T07:05:27;5.03;;;4.70;;
17564;SDS011;62994;52.126;5.596;2023-06-05T07:07:54;6.00;;;5.50;;
17564;SDS011;62994;52.126;5.596;2023-06-05T07:10:26;5.70;;;4.60;;
17564;SDS011;62994;52.126;5.596;2023-06-05T07:12:54;4.72;;;4.32;;
17564;SDS011;62994;52.126;5.596;2023-06-05T07:15:21;5.35;;;4.88;;
17564;SDS011;62994;52.126;5.596;2023-06-05T07:17:51;5.25;;;4.82;;
17564;SDS011;62994;52.126;5.596;2023-06-05T07:20:20;5.03;;;4.78;;
17564;SDS011;62994;52.126;5.596;2023-06-05T07:22:47;6.25;;;5.22;;
17564;SDS011;62994;52.126;5.596;2023-06-05T07:25:15;4.57;;;4.28;;
17564;SDS011;62994;52.126;5.596;2023-06-05T07:27:43;4.95;;;4.40;;
17564;SDS011;62994;52.126;5.596;2023-06-05T07:30:11;4.78;;;4.45;;
17564;SDS011;62994;52.126;5.596;2023-06-05T07:32:39;4.90;;;4.60;;
17564;SDS011;62994;52.126;5.596;2023-06-05T07:35:11;4.82;;;4.50;;
17564;SDS011;62994;52.126;5.596;2023-06-05T07:37:39;5.03;;;4.63;;
17564;SDS011;62994;52.126;5.596;2023-06-05T07:40:07;4.80;;;4.40;;
17564;SDS011;62994;52.126;5.596;2023-06-05T07:42:35;5.47;;;4.97;;
17564;SDS011;62994;52.126;5.596;2023-06-05T07:45:02;4.80;;;4.50;;
17564;SDS011;62994;52.126;5.596;2023-06-05T07:47:30;4.80;;;4.43;;
17564;SDS011;62994;52.126;5.596;2023-06-05T07:49:57;4.95;;;4.30;;
17564;SDS011;62994;52.126;5.596;2023-06-05T07:52:26;7.32;;;3.92;;
17564;SDS011;62994;52.126;5.596;2023-06-05T07:54:53;3.95;;;3.65;;
17564;SDS011;62994;52.126;5.596;2023-06-05T07:57:20;4.88;;;3.55;;
17564;SDS011;62994;52.126;5.596;2023-06-05T07:59:49;5.20;;;4.50;;
17564;SDS011;62994;52.126;5.596;2023-06-05T08:02:22;3.97;;;3.65;;
17564;SDS011;62994;52.126;5.596;2023-06-05T08:04:49;4.60;;;4.30;;
17564;SDS011;62994;52.126;5.596;2023-06-05T08:07:16;4.93;;;4.65;;
17564;SDS011;62994;52.126;5.596;2023-06-05T08:09:45;4.75;;;4.10;;
17564;SDS011;62994;52.126;5.596;2023-06-05T08:12:14;4.53;;;4.10;;
17564;SDS011;62994;52.126;5.596;2023-06-05T08:14:41;4.22;;;4.03;;
17564;SDS011;62994;52.126;5.596;2023-06-05T08:17:08;4.25;;;4.05;;
17564;SDS011;62994;52.126;5.596;2023-06-05T08:19:36;4.18;;;3.88;;
17564;SDS011;62994;52.126;5.596;2023-06-05T08:22:03;4.05;;;3.83;;
17564;SDS011;62994;52.126;5.596;2023-06-05T08:24:30;4.05;;;3.85;;
17564;SDS011;62994;52.126;5.596;2023-06-05T08:26:59;4.70;;;4.40;;
17564;SDS011;62994;52.126;5.596;2023-06-05T08:29:26;4.72;;;3.80;;
17564;SDS011;62994;52.126;5.596;2023-06-05T08:31:54;4.35;;;4.07;;
17564;SDS011;62994;52.126;5.596;2023-06-05T08:34:21;4.18;;;3.88;;
17564;SDS011;62994;52.126;5.596;2023-06-05T08:36:49;5.22;;;4.82;;
17564;SDS011;62994;52.126;5.596;2023-06-05T08:39:16;4.07;;;3.78;;
17564;SDS011;62994;52.126;5.596;2023-06-05T08:41:43;10.45;;;4.45;;
17564;SDS011;62994;52.126;5.596;2023-06-05T08:44:12;4.38;;;4.07;;
17564;SDS011;62994;52.126;5.596;2023-06-05T08:46:39;4.07;;;3.80;;
17564;SDS011;62994;52.126;5.596;2023-06-05T08:49:10;4.25;;;4.03;;
17564;SDS011;62994;52.126;5.596;2023-06-05T08:51:39;5.03;;;3.70;;
17564;SDS011;62994;52.126;5.596;2023-06-05T08:54:08;4.78;;;4.05;;
17564;SDS011;62994;52.126;5.596;2023-06-05T08:56:40;4.03;;;3.83;;
17564;SDS011;62994;52.126;5.596;2023-06-05T08:59:08;6.28;;;3.85;;
17564;SDS011;62994;52.126;5.596;2023-06-05T09:01:41;3.80;;;3.50;;
17564;SDS011;62994;52.126;5.596;2023-06-05T09:04:08;5.50;;;3.97;;
17564;SDS011;62994;52.126;5.596;2023-06-05T09:06:36;3.92;;;3.63;;
17564;SDS011;62994;52.126;5.596;2023-06-05T09:09:04;3.30;;;3.10;;
17564;SDS011;62994;52.126;5.596;2023-06-05T09:11:32;3.85;;;3.55;;
17564;SDS011;62994;52.126;5.596;2023-06-05T09:14:00;4.03;;;3.78;;
17564;SDS011;62994;52.126;5.596;2023-06-05T09:16:34;3.80;;;3.60;;
17564;SDS011;62994;52.126;5.596;2023-06-05T09:19:04;4.57;;;3.50;;
17564;SDS011;62994;52.126;5.596;2023-06-05T09:21:32;3.80;;;3.60;;
17564;SDS011;62994;52.126;5.596;2023-06-05T09:24:09;4.35;;;3.65;;
17564;SDS011;62994;52.126;5.596;2023-06-05T09:26:47;4.50;;;3.85;;
17564;SDS011;62994;52.126;5.596;2023-06-05T09:29:20;4.13;;;3.83;;
17564;SDS011;62994;52.126;5.596;2023-06-05T09:31:48;4.20;;;3.90;;
17564;SDS011;62994;52.126;5.596;2023-06-05T09:34:23;4.07;;;3.75;;
17564;SDS011;62994;52.126;5.596;2023-06-05T09:36:55;5.38;;;4.15;;
17564;SDS011;62994;52.126;5.596;2023-06-05T09:39:23;4.35;;;3.80;;
17564;SDS011;62994;52.126;5.596;2023-06-05T09:41:56;5.03;;;4.63;;
17564;SDS011;62994;52.126;5.596;2023-06-05T09:44:24;4.07;;;3.85;;
17564;SDS011;62994;52.126;5.596;2023-06-05T09:46:53;3.80;;;3.60;;
17564;SDS011;62994;52.126;5.596;2023-06-05T09:49:25;4.88;;;3.95;;
17564;SDS011;62994;52.126;5.596;2023-06-05T09:51:54;4.45;;;4.20;;
17564;SDS011;62994;52.126;5.596;2023-06-05T09:54:24;4.53;;;4.22;;
17564;SDS011;62994;52.126;5.596;2023-06-05T09:56:59;3.80;;;3.60;;
17564;SDS011;62994;52.126;5.596;2023-06-05T09:59:27;3.60;;;3.40;;
17564;SDS011;62994;52.126;5.596;2023-06-05T10:02:02;4.10;;;3.67;;
17564;SDS011;62994;52.126;5.596;2023-06-05T10:04:35;5.95;;;3.90;;
17564;SDS011;62994;52.126;5.596;2023-06-05T10:07:06;3.45;;;3.25;;
17564;SDS011;62994;52.126;5.596;2023-06-05T10:09:34;5.25;;;3.90;;
17564;SDS011;62994;52.126;5.596;2023-06-05T10:12:03;4.25;;;3.95;;
17564;SDS011;62994;52.126;5.596;2023-06-05T10:14:32;3.97;;;3.78;;
17564;SDS011;62994;52.126;5.596;2023-06-05T10:17:00;3.78;;;3.35;;
17564;SDS011;62994;52.126;5.596;2023-06-05T10:19:29;4.05;;;3.75;;
17564;SDS011;62994;52.126;5.596;2023-06-05T10:21:57;4.15;;;3.85;;
17564;SDS011;62994;52.126;5.596;2023-06-05T10:24:28;3.42;;;3.22;;
17564;SDS011;62994;52.126;5.596;2023-06-05T10:30:15;4.00;;;3.72;;
17564;SDS011;62994;52.126;5.596;2023-06-05T10:33:21;4.18;;;3.97;;
17564;SDS011;62994;52.126;5.596;2023-06-05T10:36:15;3.35;;;3.13;;
17564;SDS011;62994;52.126;5.596;2023-06-05T10:39:06;4.40;;;4.00;;
17564;SDS011;62994;52.126;5.596;2023-06-05T10:41:35;4.70;;;3.67;;
17564;SDS011;62994;52.126;5.596;2023-06-05T10:44:02;4.15;;;3.95;;
17564;SDS011;62994;52.126;5.596;2023-06-05T10:46:30;4.80;;;3.67;;
17564;SDS011;62994;52.126;5.596;2023-06-05T10:49:08;4.00;;;3.60;;
17564;SDS011;62994;52.126;5.596;2023-06-05T10:51:41;4.15;;;3.95;;
17564;SDS011;62994;52.126;5.596;2023-06-05T10:54:14;3.17;;;3.00;;
17564;SDS011;62994;52.126;5.596;2023-06-05T10:57:04;4.28;;;3.97;;
17564;SDS011;62994;52.126;5.596;2023-06-05T10:59:34;4.20;;;3.80;;
17564;SDS011;62994;52.126;5.596;2023-06-05T11:05:04;3.88;;;3.63;;
17564;SDS011;62994;52.126;5.596;2023-06-05T11:07:33;4.10;;;3.90;;
17564;SDS011;62994;52.126;5.596;2023-06-05T11:10:11;3.50;;;3.30;;
17564;SDS011;62994;52.126;5.596;2023-06-05T11:12:55;4.55;;;3.50;;
17564;SDS011;62994;52.126;5.596;2023-06-05T11:15:36;3.80;;;3.60;;
17564;SDS011;62994;52.126;5.596;2023-06-05T11:18:29;3.63;;;3.50;;
17564;SDS011;62994;52.126;5.596;2023-06-05T11:21:01;3.78;;;3.58;;
17564;SDS011;62994;52.126;5.596;2023-06-05T11:23:28;3.33;;;3.10;;
17564;SDS011;62994;52.126;5.596;2023-06-05T11:25:58;3.42;;;3.00;;
17564;SDS011;62994;52.126;5.596;2023-06-05T11:29:08;3.55;;;3.17;;
17564;SDS011;62994;52.126;5.596;2023-06-05T11:31:42;3.50;;;3.30;;
17564;SDS011;62994;52.126;5.596;2023-06-05T11:34:13;2.90;;;2.70;;
17564;SDS011;62994;52.126;5.596;2023-06-05T11:36:41;3.58;;;2.67;;
17564;SDS011;62994;52.126;5.596;2023-06-05T11:39:08;3.53;;;3.33;;
17564;SDS011;62994;52.126;5.596;2023-06-05T11:41:43;5.20;;;3.25;;
17564;SDS011;62994;52.126;5.596;2023-06-05T11:44:11;3.40;;;3.20;;
17564;SDS011;62994;52.126;5.596;2023-06-05T11:46:39;3.45;;;3.33;;
17564;SDS011;62994;52.126;5.596;2023-06-05T11:49:09;3.97;;;3.67;;
17564;SDS011;62994;52.126;5.596;2023-06-05T11:51:50;3.38;;;3.17;;
17564;SDS011;62994;52.126;5.596;2023-06-05T11:54:25;5.22;;;3.28;;
17564;SDS011;62994;52.126;5.596;2023-06-05T11:56:59;3.55;;;3.25;;
17564;SDS011;62994;52.126;5.596;2023-06-05T11:59:33;3.80;;;3.55;;
17564;SDS011;62994;52.126;5.596;2023-06-05T12:02:04;3.67;;;3.47;;
17564;SDS011;62994;52.126;5.596;2023-06-05T12:04:31;3.03;;;2.83;;
17564;SDS011;62994;52.126;5.596;2023-06-05T12:06:59;3.55;;;3.30;;
17564;SDS011;62994;52.126;5.596;2023-06-05T12:09:28;3.03;;;2.92;;
17564;SDS011;62994;52.126;5.596;2023-06-05T12:12:06;2.83;;;2.63;;
17564;SDS011;62994;52.126;5.596;2023-06-05T12:14:35;4.95;;;2.97;;
17564;SDS011;62994;52.126;5.596;2023-06-05T12:17:09;3.00;;;2.90;;
17564;SDS011;62994;52.126;5.596;2023-06-05T12:19:37;3.38;;;2.55;;
17564;SDS011;62994;52.126;5.596;2023-06-05T12:22:05;3.85;;;3.42;;
17564;SDS011;62994;52.126;5.596;2023-06-05T12:24:34;3.20;;;3.00;;
17564;SDS011;62994;52.126;5.596;2023-06-05T12:27:02;2.83;;;2.47;;
17564;SDS011;62994;52.126;5.596;2023-06-05T12:29:33;3.17;;;2.50;;
17564;SDS011;62994;52.126;5.596;2023-06-05T12:32:01;2.78;;;2.60;;
17564;SDS011;62994;52.126;5.596;2023-06-05T12:34:39;2.40;;;2.30;;
17564;SDS011;62994;52.126;5.596;2023-06-05T12:37:11;2.90;;;2.55;;
17564;SDS011;62994;52.126;5.596;2023-06-05T12:39:48;2.72;;;2.53;;
17564;SDS011;62994;52.126;5.596;2023-06-05T12:42:20;4.75;;;2.33;;
17564;SDS011;62994;52.126;5.596;2023-06-05T12:44:49;2.42;;;2.20;;
17564;SDS011;62994;52.126;5.596;2023-06-05T12:47:18;2.33;;;2.22;;
17564;SDS011;62994;52.126;5.596;2023-06-05T12:49:45;2.92;;;2.80;;
17564;SDS011;62994;52.126;5.596;2023-06-05T12:52:13;4.20;;;2.50;;
17564;SDS011;62994;52.126;5.596;2023-06-05T12:54:40;2.63;;;2.42;;
17564;SDS011;62994;52.126;5.596;2023-06-05T12:57:07;2.60;;;2.40;;
17564;SDS011;62994;52.126;5.596;2023-06-05T12:59:35;2.72;;;2.53;;
17564;SDS011;62994;52.126;5.596;2023-06-05T13:02:03;2.30;;;2.20;;
17564;SDS011;62994;52.126;5.596;2023-06-05T13:04:32;3.45;;;2.13;;
17564;SDS011;62994;52.126;5.596;2023-06-05T13:06:59;2.53;;;2.42;;
17564;SDS011;62994;52.126;5.596;2023-06-05T13:09:26;2.40;;;2.20;;
17564;SDS011;62994;52.126;5.596;2023-06-05T13:11:53;6.15;;;2.30;;
17564;SDS011;62994;52.126;5.596;2023-06-05T13:14:22;2.40;;;2.20;;
17564;SDS011;62994;52.126;5.596;2023-06-05T13:16:49;4.13;;;2.20;;
17564;SDS011;62994;52.126;5.596;2023-06-05T13:19:18;2.50;;;2.40;;
17564;SDS011;62994;52.126;5.596;2023-06-05T13:21:46;2.90;;;2.75;;
17564;SDS011;62994;52.126;5.596;2023-06-05T13:24:13;3.03;;;2.92;;
17564;SDS011;62994;52.126;5.596;2023-06-05T13:26:40;2.45;;;2.33;;
17564;SDS011;62994;52.126;5.596;2023-06-05T13:29:08;5.80;;;2.45;;
17564;SDS011;62994;52.126;5.596;2023-06-05T13:31:36;3.83;;;3.28;;
17564;SDS011;62994;52.126;5.596;2023-06-05T13:34:12;3.13;;;3.03;;
17564;SDS011;62994;52.126;5.596;2023-06-05T13:36:46;3.70;;;3.35;;
17564;SDS011;62994;52.126;5.596;2023-06-05T13:39:14;3.35;;;3.05;;
17564;SDS011;62994;52.126;5.596;2023-06-05T13:41:41;5.05;;;3.35;;
17564;SDS011;62994;52.126;5.596;2023-06-05T13:44:09;3.60;;;3.30;;
17564;SDS011;62994;52.126;5.596;2023-06-05T13:46:41;3.53;;;3.33;;
17564;SDS011;62994;52.126;5.596;2023-06-05T13:49:09;3.58;;;3.38;;
17564;SDS011;62994;52.126;5.596;2023-06-05T13:51:36;5.30;;;3.67;;
17564;SDS011;62994;52.126;5.596;2023-06-05T13:54:05;4.00;;;3.65;;
17564;SDS011;62994;52.126;5.596;2023-06-05T13:56:33;3.67;;;3.47;;
17564;SDS011;62994;52.126;5.596;2023-06-05T13:59:00;4.05;;;3.78;;
17564;SDS011;62994;52.126;5.596;2023-06-05T14:01:28;4.03;;;3.80;;
17564;SDS011;62994;52.126;5.596;2023-06-05T14:03:55;4.00;;;3.80;;
17564;SDS011;62994;52.126;5.596;2023-06-05T14:06:25;4.47;;;4.07;;
17564;SDS011;62994;52.126;5.596;2023-06-05T14:08:52;6.25;;;4.38;;
17564;SDS011;62994;52.126;5.596;2023-06-05T14:11:21;4.93;;;4.63;;
17564;SDS011;62994;52.126;5.596;2023-06-05T14:13:49;3.90;;;3.70;;
17564;SDS011;62994;52.126;5.596;2023-06-05T14:16:16;4.70;;;4.40;;
17564;SDS011;62994;52.126;5.596;2023-06-05T14:18:44;4.68;;;4.47;;
17564;SDS011;62994;52.126;5.596;2023-06-05T14:21:11;4.90;;;4.60;;
17564;SDS011;62994;52.126;5.596;2023-06-05T14:23:41;4.57;;;4.35;;
17564;SDS011;62994;52.126;5.596;2023-06-05T14:26:08;6.13;;;4.95;;
17564;SDS011;62994;52.126;5.596;2023-06-05T14:28:37;4.75;;;4.38;;
17564;SDS011;62994;52.126;5.596;2023-06-05T14:31:05;5.10;;;4.80;;
17564;SDS011;62994;52.126;5.596;2023-06-05T14:33:33;5.60;;;5.10;;
17564;SDS011;62994;52.126;5.596;2023-06-05T14:36:00;5.28;;;4.93;;
17564;SDS011;62994;52.126;5.596;2023-06-05T14:38:29;4.50;;;4.20;;
17564;SDS011;62994;52.126;5.596;2023-06-05T14:40:56;5.65;;;3.92;;
17564;SDS011;62994;52.126;5.596;2023-06-05T14:43:24;4.18;;;3.97;;
17564;SDS011;62994;52.126;5.596;2023-06-05T14:45:53;4.03;;;3.83;;
17564;SDS011;62994;52.126;5.596;2023-06-05T14:48:22;3.92;;;3.63;;
17564;SDS011;62994;52.126;5.596;2023-06-05T14:50:49;7.07;;;4.30;;
17564;SDS011;62994;52.126;5.596;2023-06-05T14:53:17;4.53;;;4.10;;
17564;SDS011;62994;52.126;5.596;2023-06-05T14:55:45;4.40;;;3.70;;
17564;SDS011;62994;52.126;5.596;2023-06-05T14:58:12;4.68;;;4.38;;
17564;SDS011;62994;52.126;5.596;2023-06-05T15:00:40;3.63;;;3.53;;
17564;SDS011;62994;52.126;5.596;2023-06-05T15:03:09;6.90;;;4.38;;
17564;SDS011;62994;52.126;5.596;2023-06-05T15:05:36;6.70;;;3.80;;
17564;SDS011;62994;52.126;5.596;2023-06-05T15:08:05;4.55;;;4.13;;